Terminal Aerodrome Forecast
Issued by NWS Charleston, WV

Current Version | Previous Version | Text Only | Print | Product List | Glossary Off
Versions: 1 2 3 4 5 6 7 8 9 10 11 12 13 14 15 16 17 18

000
FTUS41 KRLX 172200 AAA
TAFEKN
TAF AMD
KEKN 172258Z 1723/1818 14011G18KT P6SM SKC
     FM180300 00000KT P6SM SKC
     FM181000 00000KT P6SM SCT250
     FM181700 26004KT P6SM BKN150=

USA.gov is the U.S. government's official web portal to all federal, state and local government web resources and services.